Etusivu
METAR-TAF:

METAR-TAF

Lentoasemat :

Sparta, Wisconsin, Yhdysvallat

Leveyspiiri: 43-57-30N, Pituuspiiri: 090-44-16W, korkeus merenpinnasta: 255 m

Tämänhetkinen sää

Tämä raportti tehtiin 30 minuuttia sitten, kello 19.35 UTC
Tuuli 10 kn luoteesta
Lämpötila -2°C
Kosteus 59%
Ilmanpaine 1022 hPa
Näkyvyys: 16.1 km
Hajonneita pilviä 3900 ft:n korkeudessa
Pilvistä 4500 ft:n korkeudessa

METAR: KCMY 261935Z AUTO 31010KT 10SM BKN039 OVC045 M02/M09 A3018 RMK AO2 T10161086

Aika: 14:05 (20:05 UTC)


TAF: puuttuu

Säähavainnot ja -ennusteet yli 4000 lentoasemalta (METAR- ja TAF-raportit).

Käytössä olevat sääasemat on merkitty karttaan keltaisilla ja punaisilla pisteillä.

Aseta hiiri pisteen päälle nähdäksesi sääaseman nimen.

Klikkaa sitten nähdäksesi säähavainnot ja -ennusteet.

Kartan vaihtaminen: klikkaa mustalla rastilla varustettuja vihreitä pisteitä, niin voit zoomata sisään; viivalla varustettua vihreää pistettä, niin voit zoomata ulos tai vihreitä nuolia, niin pääset viereisille kartoille.


METAR-TAF: